Map

Track Data

SID SEASON NUMBER BASIN SUBBASIN NAME ISO_TIME NATURE LAT LON WMO_WIND WMO_PRES WMO_AGENCY TRACK_TYPE DIST2LAND LANDFALL IFLAG USA_AGENCY USA_ATCF_ID USA_LAT USA_LON USA_RECORD USA_STATUS USA_WIND USA_PRES USA_SSHS USA_R34_NE USA_R34_SE USA_R34_SW USA_R34_NW USA_R50_NE USA_R50_SE USA_R50_SW USA_R50_NW USA_R64_NE USA_R64_SE USA_R64_SW USA_R64_NW USA_POCI USA_ROCI USA_RMW USA_EYE TOKYO_LAT TOKYO_LON TOKYO_GRADE TOKYO_WIND TOKYO_PRES TOKYO_R50_DIR TOKYO_R50_LONG TOKYO_R50_SHORT TOKYO_R30_DIR TOKYO_R30_LONG TOKYO_R30_SHORT TOKYO_LAND CMA_LAT CMA_LON CMA_CAT CMA_WIND CMA_PRES HKO_LAT HKO_LON HKO_CAT HKO_WIND HKO_PRES NEWDELHI_LAT NEWDELHI_LON NEWDELHI_GRADE NEWDELHI_WIND NEWDELHI_PRES NEWDELHI_CI NEWDELHI_DP NEWDELHI_POCI REUNION_LAT REUNION_LON REUNION_TYPE REUNION_WIND REUNION_PRES REUNION_TNUM REUNION_CI REUNION_RMW REUNION_R34_NE REUNION_R34_SE REUNION_R34_SW REUNION_R34_NW REUNION_R50_NE REUNION_R50_SE REUNION_R50_SW REUNION_R50_NW REUNION_R64_NE REUNION_R64_SE REUNION_R64_SW REUNION_R64_NW BOM_LAT BOM_LON BOM_TYPE BOM_WIND BOM_PRES BOM_TNUM BOM_CI BOM_RMW BOM_R34_NE BOM_R34_SE BOM_R34_SW BOM_R34_NW BOM_R50_NE BOM_R50_SE BOM_R50_SW BOM_R50_NW BOM_R64_NE BOM_R64_SE BOM_R64_SW BOM_R64_NW BOM_ROCI BOM_POCI BOM_EYE BOM_POS_METHOD BOM_PRES_METHOD NADI_LAT NADI_LON NADI_CAT NADI_WIND NADI_PRES WELLINGTON_LAT WELLINGTON_LON WELLINGTON_WIND WELLINGTON_PRES DS824_LAT DS824_LON DS824_STAGE DS824_WIND DS824_PRES TD9636_LAT TD9636_LON TD9636_STAGE TD9636_WIND TD9636_PRES TD9635_LAT TD9635_LON TD9635_WIND TD9635_PRES TD9635_ROCI NEUMANN_LAT NEUMANN_LON NEUMANN_CLASS NEUMANN_WIND NEUMANN_PRES MLC_LAT MLC_LON MLC_CLASS MLC_WIND MLC_PRES USA_GUST BOM_GUST BOM_GUST_PER REUNION_GUST REUNION_GUST_PER USA_SEAHGT USA_SEARAD_NE USA_SEARAD_SE USA_SEARAD_SW USA_SEARAD_NW STORM_SPEED STORM_DIR
1975261N18327 1975 98 NA NA FAYE 1975-09-18 06:00:00 TS 17.5000 -33.5000 25 hurdat_atl main 1737 1737 O_____________ hurdat_atl AL141975 17.5000 -33.5000 TD 25 -1 9 287
1975261N18327 1975 98 NA NA FAYE 1975-09-18 09:00:00 TS 17.6353 -33.9548 main 1791 1791 P_____________ AL141975 17.6353 -33.9548 TD 25 -1 9 289
1975261N18327 1975 98 NA NA FAYE 1975-09-18 12:00:00 TS 17.8000 -34.4000 25 hurdat_atl main 1836 1836 O_____________ hurdat_atl AL141975 17.8000 -34.4000 TD 25 -1 9 295
1975261N18327 1975 98 NA NA FAYE 1975-09-18 15:00:00 TS 18.0198 -34.8352 main 1881 1881 P_____________ AL141975 18.0198 -34.8352 TD 25 -1 10 300
1975261N18327 1975 98 NA NA FAYE 1975-09-18 18:00:00 TS 18.3000 -35.3000 25 hurdat_atl main 1926 1926 O_____________ hurdat_atl AL141975 18.3000 -35.3000 TD 25 -1 11 303
1975261N18327 1975 98 NA NA FAYE 1975-09-18 21:00:00 TS 18.6424 -35.8275 main 1971 1971 P_____________ AL141975 18.6424 -35.8275 TD 25 -1 13 304
1975261N18327 1975 98 NA NA FAYE 1975-09-19 00:00:00 TS 19.0000 -36.4000 25 hurdat_atl main 2026 2026 O_____________ hurdat_atl AL141975 19.0000 -36.4000 TD 25 -1 13 302
1975261N18327 1975 98 NA NA FAYE 1975-09-19 03:00:00 TS 19.3222 -36.9777 main 2083 2082 P_____________ AL141975 19.3222 -36.9777 TD 27 -1 13 298
1975261N18327 1975 98 NA NA FAYE 1975-09-19 06:00:00 TS 19.6000 -37.6000 30 hurdat_atl main 2141 2141 O_____________ hurdat_atl AL141975 19.6000 -37.6000 TD 30 -1 13 292
1975261N18327 1975 98 NA NA FAYE 1975-09-19 09:00:00 TS 19.8151 -38.3002 main 2211 2206 P_____________ AL141975 19.8151 -38.3002 TD 32 -1 14 287
1975261N18327 1975 98 NA NA FAYE 1975-09-19 12:00:00 TS 20.0000 -39.0000 35 hurdat_atl main 2206 2185 O_____________ hurdat_atl AL141975 20.0000 -39.0000 TS 35 0 13 288
1975261N18327 1975 98 NA NA FAYE 1975-09-19 15:00:00 TS 20.2222 -39.6224 main 2185 2166 P_____________ AL141975 20.2222 -39.6224 TS 37 0 12 290
1975261N18327 1975 98 NA NA FAYE 1975-09-19 18:00:00 TS 20.4000 -40.2000 40 hurdat_atl main 2166 2142 O_____________ hurdat_atl AL141975 20.4000 -40.2000 TS 40 0 11 284
1975261N18327 1975 98 NA NA FAYE 1975-09-19 21:00:00 TS 20.4795 -40.7352 main 2142 2103 P_____________ AL141975 20.4795 -40.7352 TS 40 0 10 276
1975261N18327 1975 98 NA NA FAYE 1975-09-20 00:00:00 TS 20.5000 -41.3000 40 hurdat_atl main 2103 2066 O_____________ hurdat_atl AL141975 20.5000 -41.3000 TS 40 0 12 272
1975261N18327 1975 98 NA NA FAYE 1975-09-20 03:00:00 TS 20.5226 -41.9849 main 2060 2019 P_____________ AL141975 20.5226 -41.9849 TS 40 0 13 270
1975261N18327 1975 98 NA NA FAYE 1975-09-20 06:00:00 TS 20.5000 -42.7000 40 hurdat_atl main 2019 1976 O_____________ hurdat_atl AL141975 20.5000 -42.7000 TS 40 0 13 265
1975261N18327 1975 98 NA NA FAYE 1975-09-20 09:00:00 TS 20.4072 -43.3577 main 1971 1929 P_____________ AL141975 20.4072 -43.3577 TS 40 0 12 261
1975261N18327 1975 98 NA NA FAYE 1975-09-20 12:00:00 TS 20.3000 -44.0000 40 hurdat_atl main 1929 1889 O_____________ hurdat_atl AL141975 20.3000 -44.0000 TS 40 0 13 262
1975261N18327 1975 98 NA NA FAYE 1975-09-20 15:00:00 TS 20.2276 -44.6800 main 1884 1855 P_____________ AL141975 20.2276 -44.6800 TS 40 0 12 265
1975261N18327 1975 98 NA NA FAYE 1975-09-20 18:00:00 TS 20.2000 -45.3000 40 hurdat_atl main 1855 1832 O_____________ hurdat_atl AL141975 20.2000 -45.3000 TS 40 0 10 271
1975261N18327 1975 98 NA NA FAYE 1975-09-20 21:00:00 TS 20.2422 -45.7873 main 1832 1824 P_____________ AL141975 20.2422 -45.7873 TS 40 0 9 277
1975261N18327 1975 98 NA NA FAYE 1975-09-21 00:00:00 TS 20.3000 -46.2000 40 hurdat_atl main 1824 1808 O_____________ hurdat_atl AL141975 20.3000 -46.2000 TS 40 0 8 275
1975261N18327 1975 98 NA NA FAYE 1975-09-21 03:00:00 TS 20.3074 -46.6076 main 1808 1790 P_____________ AL141975 20.3074 -46.6076 TS 40 0 8 270
1975261N18327 1975 98 NA NA FAYE 1975-09-21 06:00:00 TS 20.3000 -47.0000 40 hurdat_atl main 1790 1771 O_____________ hurdat_atl AL141975 20.3000 -47.0000 TS 40 0 8 269
1975261N18327 1975 98 NA NA FAYE 1975-09-21 09:00:00 TS 20.2925 -47.4076 main 1771 1754 P_____________ AL141975 20.2925 -47.4076 TS 40 0 8 270
1975261N18327 1975 98 NA NA FAYE 1975-09-21 12:00:00 TS 20.3000 -47.8000 40 hurdat_atl main 1754 1741 O_____________ hurdat_atl AL141975 20.3000 -47.8000 TS 40 0 7 274
1975261N18327 1975 98 NA NA FAYE 1975-09-21 15:00:00 TS 20.3423 -48.1500 main 1741 1722 P_____________ AL141975 20.3423 -48.1500 TS 37 0 7 279
1975261N18327 1975 98 NA NA FAYE 1975-09-21 18:00:00 TS 20.4000 -48.5000 35 hurdat_atl main 1722 1696 O_____________ hurdat_atl AL141975 20.4000 -48.5000 TS 35 0 7 279
1975261N18327 1975 98 NA NA FAYE 1975-09-21 21:00:00 TS 20.4575 -48.9000 main 1696 1664 P_____________ AL141975 20.4575 -48.9000 TS 35 0 8 278
1975261N18327 1975 98 NA NA FAYE 1975-09-22 00:00:00 TS 20.5000 -49.3000 35 hurdat_atl main 1664 1640 O_____________ hurdat_atl AL141975 20.5000 -49.3000 TS 35 0 7 275
1975261N18327 1975 98 NA NA FAYE 1975-09-22 03:00:00 TS 20.5148 -49.6500 main 1640 1608 P_____________ AL141975 20.5148 -49.6500 TS 35 0 7 270
1975261N18327 1975 98 NA NA FAYE 1975-09-22 06:00:00 TS 20.5000 -50.0000 35 hurdat_atl main 1608 1577 O_____________ hurdat_atl AL141975 20.5000 -50.0000 TS 35 0 7 265
1975261N18327 1975 98 NA NA FAYE 1975-09-22 09:00:00 TS 20.4500 -50.4001 main 1577 1539 P_____________ AL141975 20.4500 -50.4001 TS 35 0 8 262
1975261N18327 1975 98 NA NA FAYE 1975-09-22 12:00:00 TS 20.4000 -50.8000 35 hurdat_atl main 1539 1516 O_____________ hurdat_atl AL141975 20.4000 -50.8000 TS 35 0 7 265
1975261N18327 1975 98 NA NA FAYE 1975-09-22 15:00:00 TS 20.3924 -51.1574 main 1509 1487 P_____________ AL141975 20.3924 -51.1574 TS 35 0 7 270
1975261N18327 1975 98 NA NA FAYE 1975-09-22 18:00:00 TS 20.4000 -51.5000 35 hurdat_atl main 1487 1464 O_____________ hurdat_atl AL141975 20.4000 -51.5000 TS 35 0 6 271
1975261N18327 1975 98 NA NA FAYE 1975-09-22 21:00:00 TS 20.4071 -51.8124 main 1464 1422 P_____________ AL141975 20.4071 -51.8124 TS 35 0 7 270
1975261N18327 1975 98 NA NA FAYE 1975-09-23 00:00:00 TS 20.4000 -52.2000 35 hurdat_atl main 1422 1369 O_____________ hurdat_atl AL141975 20.4000 -52.2000 TS 35 0 9 266
1975261N18327 1975 98 NA NA FAYE 1975-09-23 03:00:00 TS 20.3426 -52.7627 main 1359 1297 P_____________ AL141975 20.3426 -52.7627 TS 35 0 11 265
1975261N18327 1975 98 NA NA FAYE 1975-09-23 06:00:00 TS 20.3000 -53.4000 35 hurdat_atl main 1297 1235 O_____________ hurdat_atl AL141975 20.3000 -53.4000 TS 35 0 12 269
1975261N18327 1975 98 NA NA FAYE 1975-09-23 09:00:00 TS 20.3273 -54.0000 main 1235 1174 P_____________ AL141975 20.3273 -54.0000 TS 32 -1 11 275
1975261N18327 1975 98 NA NA FAYE 1975-09-23 12:00:00 TS 20.4000 -54.6000 30 hurdat_atl main 1174 1115 O_____________ hurdat_atl AL141975 20.4000 -54.6000 TD 30 -1 12 278
1975261N18327 1975 98 NA NA FAYE 1975-09-23 15:00:00 TS 20.4926 -55.2374 main 1115 1056 P_____________ AL141975 20.4926 -55.2374 TD 30 -1 11 280
1975261N18327 1975 98 NA NA FAYE 1975-09-23 18:00:00 TS 20.6000 -55.8000 30 hurdat_atl main 1056 1017 O_____________ hurdat_atl AL141975 20.6000 -55.8000 TD 30 -1 9 281
1975261N18327 1975 98 NA NA FAYE 1975-09-23 21:00:00 TS 20.6622 -56.1953 main 1017 990 P_____________ AL141975 20.6622 -56.1953 TD 30 -1 7 287
1975261N18327 1975 98 NA NA FAYE 1975-09-24 00:00:00 TS 20.8000 -56.5000 30 hurdat_atl main 990 965 O_____________ hurdat_atl AL141975 20.8000 -56.5000 TD 30 -1 8 305
1975261N18327 1975 98 NA NA FAYE 1975-09-24 03:00:00 TS 21.0976 -56.8596 main 959 949 P_____________ AL141975 21.0976 -56.8596 TD 27 -1 9 321
1975261N18327 1975 98 NA NA FAYE 1975-09-24 06:00:00 TS 21.5000 -57.1000 25 hurdat_atl main 953 953 O_____________ hurdat_atl AL141975 21.5000 -57.1000 TD 25 -1 9 345
1975261N18327 1975 98 NA NA FAYE 1975-09-24 09:00:00 TS 21.9574 -57.1029 main 973 973 P_____________ AL141975 21.9574 -57.1029 TD 25 -1 9 5
1975261N18327 1975 98 NA NA FAYE 1975-09-24 12:00:00 TS 22.4000 -57.0000 25 hurdat_atl main 1001 1001 O_____________ hurdat_atl AL141975 22.4000 -57.0000 TD 25 -1 8 12
1975261N18327 1975 98 NA NA FAYE 1975-09-24 15:00:00 TS 22.7075 -56.9202 main 1025 1025 P_____________ AL141975 22.7075 -56.9202 TD 25 -1 6 8
1975261N18327 1975 98 NA NA FAYE 1975-09-24 18:00:00 TS 23.0000 -56.9000 25 1005 hurdat_atl main 1040 1040 O_____________ hurdat_atl AL141975 23.0000 -56.9000 TD 25 1005 -1 7 355
1975261N18327 1975 98 NA NA FAYE 1975-09-24 21:00:00 TS 23.4148 -56.9750 main 1053 1053 P_____________ AL141975 23.4148 -56.9750 TD 27 1005 -1 9 341
1975261N18327 1975 98 NA NA FAYE 1975-09-25 00:00:00 TS 23.8000 -57.2000 30 1005 hurdat_atl main 1059 1038 O_____________ hurdat_atl AL141975 23.8000 -57.2000 TD 30 1005 -1 8 315
1975261N18327 1975 98 NA NA FAYE 1975-09-25 03:00:00 TS 24.0153 -57.6202 main 1038 1011 P_____________ AL141975 24.0153 -57.6202 TD 32 1005 -1 9 296
1975261N18327 1975 98 NA NA FAYE 1975-09-25 06:00:00 TS 24.2000 -58.1000 35 1005 hurdat_atl main 1011 1002 O_____________ hurdat_atl AL141975 24.2000 -58.1000 TS 35 1005 0 9 301
1975261N18327 1975 98 NA NA FAYE 1975-09-25 09:00:00 TS 24.4774 -58.4726 main 1002 1001 P_____________ AL141975 24.4774 -58.4726 TS 40 1002 0 9 313
1975261N18327 1975 98 NA NA FAYE 1975-09-25 12:00:00 TS 24.8000 -58.8000 45 999 hurdat_atl main 1002 1002 O_____________ hurdat_atl AL141975 24.8000 -58.8000 TS 45 999 0 9 318
1975261N18327 1975 98 NA NA FAYE 1975-09-25 15:00:00 TS 25.1199 -59.1078 main 1005 1005 P_____________ AL141975 25.1199 -59.1078 TS 52 996 0 9 322
1975261N18327 1975 98 NA NA FAYE 1975-09-25 18:00:00 TS 25.5000 -59.4000 60 993 hurdat_atl main 1018 1018 O_____________ hurdat_atl AL141975 25.5000 -59.4000 TS 60 993 0 10 328
1975261N18327 1975 98 NA NA FAYE 1975-09-25 21:00:00 TS 25.9473 -59.6782 main 1034 1034 P_____________ AL141975 25.9473 -59.6782 TS 62 991 0 11 332
1975261N18327 1975 98 NA NA FAYE 1975-09-26 00:00:00 TS 26.5000 -60.0000 65 990 hurdat_atl main 1072 1072 O_____________ hurdat_atl AL141975 26.5000 -60.0000 HU 65 990 1 14 331
1975261N18327 1975 98 NA NA FAYE 1975-09-26 03:00:00 TS 27.1474 -60.4130 main 1108 1108 P_____________ AL141975 27.1474 -60.4130 HU 67 989 1 16 330
1975261N18327 1975 98 NA NA FAYE 1975-09-26 06:00:00 TS 27.9000 -60.9000 70 988 hurdat_atl main 1165 1165 O_____________ hurdat_atl AL141975 27.9000 -60.9000 HU 70 988 1 18 331
1975261N18327 1975 98 NA NA FAYE 1975-09-26 09:00:00 TS 28.7500 -61.4349 main 1227 1227 P_____________ AL141975 28.7500 -61.4349 HU 72 986 1 20 330
1975261N18327 1975 98 NA NA FAYE 1975-09-26 12:00:00 TS 29.6000 -62.0000 75 985 hurdat_atl main 1303 1303 O_____________ hurdat_atl AL141975 29.6000 -62.0000 HU 75 985 1 18 328
1975261N18327 1975 98 NA NA FAYE 1975-09-26 15:00:00 TS 30.2998 -62.5515 main 1346 1266 P_____________ AL141975 30.2998 -62.5515 HU 80 985 1 17 326
1975261N18327 1975 98 NA NA FAYE 1975-09-26 18:00:00 TS 31.0000 -63.1000 85 985 hurdat_atl main 1266 1183 O_____________ hurdat_atl AL141975 31.0000 -63.1000 HU 85 985 2 18 328
1975261N18327 1975 98 NA NA FAYE 1975-09-26 21:00:00 TS 31.8274 -63.6579 main 1174 1091 P_____________ AL141975 31.8274 -63.6579 HU 87 985 2 19 331
1975261N18327 1975 98 NA NA FAYE 1975-09-27 00:00:00 TS 32.7000 -64.2000 90 985 hurdat_atl main 1091 1017 O_____________ hurdat_atl AL141975 32.7000 -64.2000 HU 90 985 2 20 332
1975261N18327 1975 98 NA NA FAYE 1975-09-27 03:00:00 TS 33.5501 -64.7450 main 1014 914 P_____________ AL141975 33.5501 -64.7450 HU 90 982 2 19 334
1975261N18327 1975 98 NA NA FAYE 1975-09-27 06:00:00 TS 34.4000 -65.2000 90 979 hurdat_atl main 914 818 O_____________ hurdat_atl AL141975 34.4000 -65.2000 HU 90 979 2 19 338
1975261N18327 1975 98 NA NA FAYE 1975-09-27 09:00:00 TS 35.2796 -65.5765 main 808 725 P_____________ AL141975 35.2796 -65.5765 HU 90 980 2 18 347
1975261N18327 1975 98 NA NA FAYE 1975-09-27 12:00:00 TS 36.1000 -65.7000 90 982 hurdat_atl main 725 668 O_____________ hurdat_atl AL141975 36.1000 -65.7000 HU 90 982 2 15 3
1975261N18327 1975 98 NA NA FAYE 1975-09-27 15:00:00 TS 36.8021 -65.4861 main 668 641 P_____________ AL141975 36.8021 -65.4861 HU 90 983 2 14 23
1975261N18327 1975 98 NA NA FAYE 1975-09-27 18:00:00 TS 37.4000 -65.0000 90 985 hurdat_atl main 641 624 O_____________ hurdat_atl AL141975 37.4000 -65.0000 HU 90 985 2 13 35
1975261N18327 1975 98 NA NA FAYE 1975-09-27 21:00:00 TS 37.8892 -64.5323 main 626 581 P_____________ AL141975 37.8892 -64.5323 HU 87 985 2 14 46
1975261N18327 1975 98 NA NA FAYE 1975-09-28 00:00:00 TS 38.4000 -63.7000 85 985 hurdat_atl main 582 552 O_____________ hurdat_atl AL141975 38.4000 -63.7000 HU 85 985 2 21 56
1975261N18327 1975 98 NA NA FAYE 1975-09-28 03:00:00 TS 39.0869 -62.2599 main 549 547 P_____________ AL141975 39.0869 -62.2599 HU 82 985 1 28 61
1975261N18327 1975 98 NA NA FAYE 1975-09-28 06:00:00 TS 39.8000 -60.5000 80 985 hurdat_atl main 569 560 O_____________ hurdat_atl AL141975 39.8000 -60.5000 HU 80 985 1 29 63
1975261N18327 1975 98 NA NA FAYE 1975-09-28 09:00:00 TS 40.3993 -58.9339 main 562 552 P_____________ AL141975 40.3993 -58.9339 HU 77 982 1 28 65
1975261N18327 1975 98 NA NA FAYE 1975-09-28 12:00:00 TS 41.0000 -57.1000 75 979 hurdat_atl main 567 554 O_____________ hurdat_atl AL141975 41.0000 -57.1000 HU 75 979 1 34 68
1975261N18327 1975 98 NA NA FAYE 1975-09-28 15:00:00 TS 41.6996 -54.7490 main 551 484 P_____________ AL141975 41.6996 -54.7490 HU 75 978 1 40 71
1975261N18327 1975 98 NA NA FAYE 1975-09-28 18:00:00 TS 42.3000 -52.0000 75 977 hurdat_atl main 487 481 O_____________ hurdat_atl AL141975 42.3000 -52.0000 HU 75 977 1 43 77
1975261N18327 1975 98 NA NA FAYE 1975-09-28 21:00:00 TS 42.6369 -49.0621 main 549 549 P_____________ AL141975 42.6369 -49.0621 HU 72 977 1 44 84
1975261N18327 1975 98 NA NA FAYE 1975-09-29 00:00:00 TS 42.8000 -46.0000 70 977 hurdat_atl main 706 706 O_____________ hurdat_atl AL141975 42.8000 -46.0000 HU 70 977 1 44 87
1975261N18327 1975 98 NA NA FAYE 1975-09-29 03:00:00 TS 42.8721 -42.9952 main 895 895 P_____________ AL141975 42.8721 -42.9952 HU 67 977 1 44 89
1975261N18327 1975 98 NA NA FAYE 1975-09-29 06:00:00 TS 42.9000 -40.0000 65 977 hurdat_atl main 1106 1106 O_____________ hurdat_atl AL141975 42.9000 -40.0000 HU 65 977 1 44 89
1975261N18327 1975 98 NA NA FAYE 1975-09-29 09:00:00 TS 42.9558 -37.0042 main 1312 1312 P_____________ AL141975 42.9558 -37.0042 HU 62 0 44 89
1975261N18327 1975 98 NA NA FAYE 1975-09-29 12:00:00 ET 43.0000 -34.0000 60 hurdat_atl main 1529 O_____________ hurdat_atl AL141975 43.0000 -34.0000 EX 60 -4 44 89

About IBTrACS Database

This database is a web-friendly format of International Best Track Archive for Climate Stewardship (IBTrACS), a global best track data archive curated by NOAA dating back to 1842.

Updated: 2021-12-08